createdAt,value
2019-04-06T00:00:04.059Z,5
2019-04-06T00:01:01.810Z,5
2019-04-06T00:02:01.987Z,5
2019-04-06T00:03:02.270Z,5
2019-04-06T00:04:02.519Z,2
2019-04-06T00:05:02.730Z,1
2019-04-06T00:06:01.969Z,1
2019-04-06T00:07:02.155Z,1
2019-04-06T00:08:02.354Z,1
2019-04-06T00:09:02.562Z,1
2019-04-06T00:10:01.872Z,1
2019-04-06T00:11:01.972Z,2
2019-04-06T00:12:02.277Z,2
2019-04-06T00:13:02.431Z,2
2019-04-06T00:14:02.715Z,2
2019-04-06T00:15:02.080Z,2
2019-04-06T00:16:02.234Z,2
2019-04-06T00:17:02.544Z,2
2019-04-06T00:18:01.788Z,2
2019-04-06T00:19:02.011Z,2
2019-04-06T00:20:02.210Z,2
2019-04-06T00:21:02.363Z,2
2019-04-06T00:22:02.724Z,1
2019-04-06T00:23:01.768Z,2
2019-04-06T00:24:02.124Z,2
2019-04-06T00:25:02.344Z,2
2019-04-06T00:26:02.576Z,2
2019-04-06T00:27:01.747Z,2
2019-04-06T00:28:02.006Z,2
2019-04-06T00:29:02.290Z,4
2019-04-06T00:30:02.449Z,4
2019-04-06T00:31:02.620Z,4
2019-04-06T00:32:01.889Z,4
2019-04-06T00:33:02.086Z,4
2019-04-06T00:34:02.395Z,2
2019-04-06T00:35:02.589Z,2
2019-04-06T00:36:01.808Z,2
2019-04-06T00:37:02.123Z,2
2019-04-06T00:38:02.653Z,2
2019-04-06T00:39:02.796Z,2
2019-04-06T00:40:02.739Z,1
2019-04-06T00:41:02.021Z,2
2019-04-06T00:42:02.209Z,2
2019-04-06T00:43:02.437Z,2
2019-04-06T00:44:02.812Z,2
2019-04-06T00:45:02.012Z,2
2019-04-06T00:46:02.246Z,1
2019-04-06T00:47:02.517Z,4
2019-04-06T00:48:02.649Z,4
2019-04-06T00:49:01.908Z,4
2019-04-06T00:50:02.189Z,4
2019-04-06T00:51:02.398Z,4
2019-04-06T00:52:02.604Z,1
2019-04-06T00:53:01.914Z,4
2019-04-06T00:54:02.091Z,4
2019-04-06T00:55:02.332Z,4
2019-04-06T00:56:02.501Z,4
2019-04-06T00:57:02.498Z,4
2019-04-06T00:58:02.619Z,2
2019-04-06T00:59:01.888Z,2
2019-04-06T01:00:04.855Z,2
2019-04-06T01:01:02.644Z,2
2019-04-06T01:02:02.566Z,2
2019-04-06T01:03:01.885Z,2
2019-04-06T01:04:02.027Z,1
2019-04-06T01:05:01.915Z,2
2019-04-06T01:06:02.219Z,2
2019-04-06T01:07:02.418Z,2
2019-04-06T01:08:02.630Z,2
2019-04-06T01:09:01.787Z,2
2019-04-06T01:10:02.048Z,4
2019-04-06T01:11:02.293Z,2
2019-04-06T01:12:02.517Z,2
2019-04-06T01:13:02.742Z,2
2019-04-06T01:14:01.941Z,2
2019-04-06T01:15:02.279Z,2
2019-04-06T01:16:02.612Z,4
2019-04-06T01:17:02.512Z,1
2019-04-06T01:18:02.711Z,1
2019-04-06T01:19:01.954Z,1
2019-04-06T01:20:02.324Z,1
2019-04-06T01:21:06.012Z,1
2019-04-06T01:22:02.716Z,2
2019-04-06T01:23:01.941Z,4
2019-04-06T01:24:02.203Z,4
2019-04-06T01:25:02.445Z,4
2019-04-06T01:26:08.132Z,4
2019-04-06T01:27:01.950Z,4
2019-04-06T01:28:02.051Z,2
2019-04-06T01:29:02.275Z,2
2019-04-06T01:30:02.543Z,2
2019-04-06T01:31:01.979Z,2
2019-04-06T01:32:02.062Z,2
2019-04-06T01:33:02.213Z,2
2019-04-06T01:34:02.479Z,2
2019-04-06T01:35:02.654Z,2
2019-04-06T01:36:01.961Z,2
2019-04-06T01:37:02.091Z,2
2019-04-06T01:38:02.346Z,2
2019-04-06T01:39:02.635Z,2
2019-04-06T01:40:02.105Z,1
2019-04-06T01:41:02.348Z,4
2019-04-06T01:42:02.468Z,4
2019-04-06T01:43:02.681Z,4
2019-04-06T01:44:01.879Z,4
2019-04-06T01:45:02.220Z,4
2019-04-06T01:46:02.431Z,2
2019-04-06T01:47:02.743Z,2
2019-04-06T01:48:01.863Z,2
2019-04-06T01:49:02.052Z,2
2019-04-06T01:50:02.527Z,2
2019-04-06T01:51:02.627Z,2
2019-04-06T01:52:01.820Z,1
2019-04-06T01:53:02.130Z,4
2019-04-06T01:54:02.263Z,4
2019-04-06T01:55:02.566Z,4
2019-04-06T01:56:01.760Z,4
2019-04-06T01:57:02.004Z,4
2019-04-06T01:58:02.195Z,2
2019-04-06T01:59:02.504Z,5
2019-04-06T02:00:04.364Z,5
2019-04-06T02:01:01.851Z,5
2019-04-06T02:02:02.116Z,5
2019-04-06T02:03:02.471Z,5
2019-04-06T02:04:02.463Z,0
2019-04-06T02:05:02.809Z,2
2019-04-06T02:06:01.883Z,2
2019-04-06T02:07:02.215Z,2
2019-04-06T02:08:02.347Z,2
2019-04-06T02:09:02.668Z,2
2019-04-06T02:10:02.075Z,2
2019-04-06T02:11:02.216Z,4
2019-04-06T02:12:02.496Z,4
2019-04-06T02:13:01.772Z,4
2019-04-06T02:14:01.977Z,4
2019-04-06T02:15:02.267Z,4
2019-04-06T02:16:02.504Z,2
2019-04-06T02:17:02.568Z,5
2019-04-06T02:18:01.848Z,5
2019-04-06T02:19:02.102Z,5
2019-04-06T02:20:02.352Z,5
2019-04-06T02:21:02.541Z,5
2019-04-06T02:22:01.769Z,4
2019-04-06T02:23:02.030Z,5
2019-04-06T02:24:02.201Z,5
2019-04-06T02:25:02.515Z,5
2019-04-06T02:26:02.700Z,5
2019-04-06T02:27:01.895Z,5
2019-04-06T02:28:02.175Z,1
2019-04-06T02:29:02.459Z,5
2019-04-06T02:30:02.575Z,5
2019-04-06T02:31:01.795Z,5
2019-04-06T02:32:02.100Z,5
2019-04-06T02:33:02.276Z,5
2019-04-06T02:34:02.520Z,1
2019-04-06T02:35:02.948Z,6
2019-04-06T02:36:02.074Z,6
2019-04-06T02:37:06.762Z,6
2019-04-06T02:38:02.454Z,6
2019-04-06T02:39:02.795Z,6
2019-04-06T02:40:01.977Z,4
2019-04-06T02:41:02.281Z,2
2019-04-06T02:42:02.467Z,2
2019-04-06T02:43:02.585Z,2
2019-04-06T02:44:01.798Z,2
2019-04-06T02:45:02.276Z,2
2019-04-06T02:46:02.499Z,2
2019-04-06T02:47:02.645Z,2
2019-04-06T02:48:01.877Z,2
2019-04-06T02:49:02.043Z,2
2019-04-06T02:50:02.373Z,2
2019-04-06T02:51:02.565Z,2
2019-04-06T02:52:01.865Z,2
2019-04-06T02:53:02.331Z,4
2019-04-06T02:54:02.290Z,4
2019-04-06T02:55:02.516Z,4
2019-04-06T02:56:02.705Z,4
2019-04-06T02:57:01.878Z,4
2019-04-06T02:58:02.219Z,2
2019-04-06T02:59:02.633Z,2
2019-04-06T03:00:02.503Z,2
2019-04-06T03:01:02.894Z,2
2019-04-06T03:02:02.021Z,2
2019-04-06T03:03:02.253Z,2
2019-04-06T03:04:02.527Z,4
2019-04-06T03:05:02.706Z,2
2019-04-06T03:06:01.950Z,2
2019-04-06T03:07:02.234Z,2
2019-04-06T03:08:02.034Z,2
2019-04-06T03:09:02.252Z,2
2019-04-06T03:10:02.482Z,1
2019-04-06T03:11:01.734Z,2
2019-04-06T03:12:02.373Z,2
2019-04-06T03:13:02.519Z,2
2019-04-06T03:14:02.487Z,2
2019-04-06T03:15:01.764Z,2
2019-04-06T03:16:02.051Z,1
2019-04-06T03:17:02.287Z,2
2019-04-06T03:18:02.408Z,2
2019-04-06T03:19:02.625Z,2
2019-04-06T03:20:01.795Z,2
2019-04-06T03:21:02.166Z,2
2019-04-06T03:22:02.308Z,1
2019-04-06T03:23:02.472Z,4
2019-04-06T03:24:02.076Z,4
2019-04-06T03:25:02.178Z,4
2019-04-06T03:26:02.675Z,4
2019-04-06T03:27:03.522Z,4
2019-04-06T03:28:02.666Z,2
2019-04-06T03:29:01.879Z,2
2019-04-06T03:30:02.429Z,2
2019-04-06T03:31:02.617Z,2
2019-04-06T03:32:02.690Z,2
2019-04-06T03:33:01.977Z,2
2019-04-06T03:34:02.520Z,1
2019-04-06T03:35:03.085Z,4
2019-04-06T03:36:02.433Z,4
2019-04-06T03:37:02.572Z,4
2019-04-06T03:38:01.967Z,4
2019-04-06T03:39:02.113Z,4
2019-04-06T03:40:02.360Z,2
2019-04-06T03:41:02.542Z,4
2019-04-06T03:42:01.718Z,4
2019-04-06T03:43:01.903Z,4
2019-04-06T03:44:02.310Z,4
2019-04-06T03:45:02.439Z,4
2019-04-06T03:46:02.708Z,2
2019-04-06T03:47:01.878Z,6
2019-04-06T03:48:02.065Z,6
2019-04-06T03:49:02.226Z,6
2019-04-06T03:50:02.069Z,6
2019-04-06T03:51:02.451Z,6
2019-04-06T03:52:02.452Z,2
2019-04-06T03:53:01.770Z,4
2019-04-06T03:54:01.903Z,4
2019-04-06T03:55:02.205Z,4
2019-04-06T03:56:02.705Z,4
2019-04-06T03:57:17.240Z,4
2019-04-06T03:58:02.212Z,2
2019-04-06T03:59:02.212Z,4
2019-04-06T04:00:04.007Z,4
2019-04-06T04:01:01.797Z,4
2019-04-06T04:02:02.252Z,4
2019-04-06T04:03:02.275Z,4
2019-04-06T04:04:02.721Z,2
2019-04-06T04:05:01.784Z,4
2019-04-06T04:06:01.911Z,4
2019-04-06T04:07:02.400Z,4
2019-04-06T04:08:02.552Z,4
2019-04-06T04:09:01.835Z,4
2019-04-06T04:10:01.937Z,2
2019-04-06T04:11:02.166Z,4
2019-04-06T04:12:02.403Z,4
2019-04-06T04:13:02.788Z,4
2019-04-06T04:14:01.855Z,4
2019-04-06T04:15:02.224Z,4
2019-04-06T04:16:02.387Z,1
2019-04-06T04:17:02.378Z,2
2019-04-06T04:18:01.674Z,2
2019-04-06T04:19:01.883Z,2
2019-04-06T04:20:02.556Z,2
2019-04-06T04:21:02.321Z,2
2019-04-06T04:22:02.656Z,2
2019-04-06T04:23:01.796Z,6
2019-04-06T04:24:02.185Z,6
2019-04-06T04:25:02.534Z,6
2019-04-06T04:26:02.470Z,6
2019-04-06T04:27:01.813Z,6
2019-04-06T04:28:02.034Z,6
2019-04-06T04:29:02.309Z,5
2019-04-06T04:30:02.548Z,5
2019-04-06T04:31:01.850Z,5
2019-04-06T04:32:01.958Z,5
2019-04-06T04:33:02.246Z,5
2019-04-06T04:34:02.686Z,1
2019-04-06T04:35:02.786Z,5
2019-04-06T04:36:01.825Z,5
2019-04-06T04:37:02.302Z,5
2019-04-06T04:38:02.294Z,5
2019-04-06T04:39:02.593Z,5
2019-04-06T04:40:01.868Z,4
2019-04-06T04:41:02.206Z,4
2019-04-06T04:42:02.472Z,4
2019-04-06T04:43:02.545Z,4
2019-04-06T04:44:02.025Z,4
2019-04-06T04:45:02.163Z,4
2019-04-06T04:46:02.303Z,2
2019-04-06T04:47:02.496Z,4
2019-04-06T04:48:01.769Z,4
2019-04-06T04:49:01.996Z,4
2019-04-06T04:50:02.503Z,4
2019-04-06T04:51:02.484Z,4
2019-04-06T04:52:01.651Z,5
2019-04-06T04:53:02.029Z,5
2019-04-06T04:54:02.112Z,5
2019-04-06T04:55:02.431Z,5
2019-04-06T04:56:02.537Z,5
2019-04-06T04:57:01.936Z,5
2019-04-06T04:58:02.146Z,2
2019-04-06T04:59:02.434Z,8
2019-04-06T05:00:04.326Z,8
2019-04-06T05:01:02.108Z,8
2019-04-06T05:02:02.309Z,8
2019-04-06T05:03:02.534Z,8
2019-04-06T05:04:01.684Z,5
2019-04-06T05:05:01.997Z,6
2019-04-06T05:06:02.331Z,6
2019-04-06T05:07:02.368Z,6
2019-04-06T05:08:01.642Z,6
2019-04-06T05:09:01.911Z,6
2019-04-06T05:10:02.082Z,4
2019-04-06T05:11:02.367Z,8
2019-04-06T05:12:02.472Z,8
2019-04-06T05:13:01.754Z,8
2019-04-06T05:14:01.947Z,8
2019-04-06T05:15:02.374Z,8
2019-04-06T05:16:02.611Z,5
2019-04-06T05:17:03.064Z,6
2019-04-06T05:18:01.849Z,6
2019-04-06T05:19:02.089Z,6
2019-04-06T05:20:02.308Z,6
2019-04-06T05:21:02.606Z,6
2019-04-06T05:22:01.831Z,2
2019-04-06T05:23:01.912Z,6
2019-04-06T05:24:02.023Z,6
2019-04-06T05:25:02.718Z,6
2019-04-06T05:26:02.515Z,6
2019-04-06T05:27:01.779Z,6
2019-04-06T05:28:01.980Z,4
2019-04-06T05:29:02.311Z,8
2019-04-06T05:30:02.430Z,8
2019-04-06T05:31:02.620Z,8
2019-04-06T05:32:01.848Z,8
2019-04-06T05:33:02.097Z,8
2019-04-06T05:34:02.251Z,5
2019-04-06T05:35:02.532Z,6
2019-04-06T05:36:01.716Z,6
2019-04-06T05:37:01.924Z,6
2019-04-06T05:38:02.219Z,6
2019-04-06T05:39:02.529Z,6
2019-04-06T05:40:01.680Z,4
2019-04-06T05:41:01.993Z,5
2019-04-06T05:42:02.167Z,5
2019-04-06T05:43:02.538Z,5
2019-04-06T05:44:01.677Z,5
2019-04-06T05:45:01.942Z,5
2019-04-06T05:46:02.086Z,4
2019-04-06T05:47:02.328Z,6
2019-04-06T05:48:02.642Z,6
2019-04-06T05:49:01.846Z,6
2019-04-06T05:50:01.989Z,6
2019-04-06T05:51:02.231Z,6
2019-04-06T05:52:02.430Z,5
2019-04-06T05:53:01.741Z,6
2019-04-06T05:54:01.889Z,6
2019-04-06T05:55:02.182Z,6
2019-04-06T05:56:02.491Z,6
2019-04-06T05:57:02.674Z,6
2019-04-06T05:58:09.421Z,5
2019-04-06T05:59:02.125Z,9
2019-04-06T06:00:03.712Z,9
2019-04-06T06:01:04.597Z,9
2019-04-06T06:02:01.899Z,9
2019-04-06T06:03:01.895Z,9
2019-04-06T06:04:02.139Z,5
2019-04-06T06:05:02.542Z,9
2019-04-06T06:06:02.815Z,9
2019-04-06T06:07:01.831Z,9
2019-04-06T06:08:01.994Z,9
2019-04-06T06:09:02.290Z,9
2019-04-06T06:10:02.605Z,6
2019-04-06T06:11:01.840Z,9
2019-04-06T06:12:01.972Z,9
2019-04-06T06:13:02.310Z,9
2019-04-06T06:14:02.713Z,9
2019-04-06T06:15:02.480Z,9
2019-04-06T06:16:01.793Z,5
2019-04-06T06:17:01.841Z,6
2019-04-06T06:18:02.105Z,6
2019-04-06T06:19:02.354Z,6
2019-04-06T06:20:02.818Z,6
2019-04-06T06:21:01.780Z,6
2019-04-06T06:22:02.141Z,4
2019-04-06T06:23:02.379Z,6
2019-04-06T06:24:02.520Z,6
2019-04-06T06:25:02.099Z,6
2019-04-06T06:26:01.964Z,6
2019-04-06T06:27:02.221Z,6
2019-04-06T06:28:13.513Z,5
2019-04-06T06:29:02.645Z,6
2019-04-06T06:30:01.772Z,6
2019-04-06T06:31:02.094Z,6
2019-04-06T06:32:02.190Z,6
2019-04-06T06:33:02.058Z,6
2019-04-06T06:34:02.430Z,4
2019-04-06T06:35:02.510Z,5
2019-04-06T06:36:01.751Z,5
2019-04-06T06:37:01.895Z,5
2019-04-06T06:38:02.072Z,5
2019-04-06T06:39:02.320Z,5
2019-04-06T06:40:02.600Z,4
2019-04-06T06:41:01.775Z,5
2019-04-06T06:42:01.935Z,5
2019-04-06T06:43:02.091Z,5
2019-04-06T06:44:02.369Z,5
2019-04-06T06:45:02.059Z,5
2019-04-06T06:46:02.263Z,4
2019-04-06T06:47:02.365Z,9
2019-04-06T06:48:02.516Z,9
2019-04-06T06:49:01.758Z,9
2019-04-06T06:50:02.245Z,9
2019-04-06T06:51:02.244Z,9
2019-04-06T06:52:02.379Z,6
2019-04-06T06:53:02.659Z,8
2019-04-06T06:54:01.745Z,8
2019-04-06T06:55:02.315Z,8
2019-04-06T06:56:02.304Z,8
2019-04-06T06:57:02.247Z,8
2019-04-06T06:58:02.414Z,5
2019-04-06T06:59:02.508Z,8
2019-04-06T07:00:03.700Z,8
2019-04-06T07:01:04.098Z,8
2019-04-06T07:02:01.636Z,8
2019-04-06T07:03:02.075Z,8
2019-04-06T07:04:02.468Z,6
2019-04-06T07:05:02.478Z,6
2019-04-06T07:06:02.601Z,6
2019-04-06T07:07:01.957Z,6
2019-04-06T07:08:02.088Z,6
2019-04-06T07:09:02.338Z,6
2019-04-06T07:10:06.697Z,6
2019-04-06T07:11:01.718Z,6
2019-04-06T07:12:01.991Z,6
2019-04-06T07:13:01.989Z,6
2019-04-06T07:14:02.594Z,6
2019-04-06T07:15:02.481Z,6
2019-04-06T07:16:02.499Z,5
2019-04-06T07:17:01.725Z,9
2019-04-06T07:18:02.235Z,9
2019-04-06T07:19:02.233Z,9
2019-04-06T07:20:02.759Z,9
2019-04-06T07:21:01.888Z,9
2019-04-06T07:22:01.888Z,6
2019-04-06T07:23:02.219Z,8
2019-04-06T07:24:02.392Z,8
2019-04-06T07:25:02.948Z,8
2019-04-06T07:26:01.793Z,8
2019-04-06T07:27:02.130Z,8
2019-04-06T07:28:02.157Z,8
2019-04-06T07:29:02.682Z,8
2019-04-06T07:30:02.515Z,8
2019-04-06T07:31:01.639Z,8
2019-04-06T07:32:01.913Z,8
2019-04-06T07:33:01.913Z,8
2019-04-06T07:34:02.236Z,5
2019-04-06T07:35:02.369Z,7
2019-04-06T07:36:02.816Z,7
2019-04-06T07:37:01.748Z,7
2019-04-06T07:38:02.078Z,7
2019-04-06T07:39:02.104Z,7
2019-04-06T07:40:02.298Z,5
2019-04-06T07:41:02.529Z,9
2019-04-06T07:42:01.692Z,9
2019-04-06T07:43:02.026Z,9
2019-04-06T07:44:02.132Z,9
2019-04-06T07:45:02.364Z,9
2019-04-06T07:46:02.940Z,6
2019-04-06T07:47:02.320Z,6
2019-04-06T07:48:02.569Z,6
2019-04-06T07:49:10.606Z,6
2019-04-06T07:50:01.965Z,6
2019-04-06T07:51:02.114Z,6
2019-04-06T07:52:02.431Z,8
2019-04-06T07:53:02.465Z,10
2019-04-06T07:54:03.138Z,10
2019-04-06T07:55:01.867Z,10
2019-04-06T07:56:02.062Z,10
2019-04-06T07:57:02.312Z,10
2019-04-06T07:58:02.462Z,7
2019-04-06T07:59:01.739Z,13
2019-04-06T08:00:04.352Z,13
2019-04-06T08:01:02.052Z,13
2019-04-06T08:02:02.075Z,13
2019-04-06T08:03:02.269Z,13
2019-04-06T08:04:02.625Z,7
2019-04-06T08:05:02.790Z,9
2019-04-06T08:06:02.271Z,9
2019-04-06T08:07:02.054Z,9
2019-04-06T08:08:02.239Z,9
2019-04-06T08:09:02.503Z,9
2019-04-06T08:10:01.687Z,7
2019-04-06T08:11:01.776Z,9
2019-04-06T08:12:01.894Z,9
2019-04-06T08:13:02.147Z,9
2019-04-06T08:14:02.568Z,9
2019-04-06T08:15:02.658Z,9
2019-04-06T08:16:01.871Z,5
2019-04-06T08:17:02.168Z,6
2019-04-06T08:18:02.491Z,6
2019-04-06T08:19:02.343Z,6
2019-04-06T08:20:02.669Z,6
2019-04-06T08:21:01.623Z,6
2019-04-06T08:22:01.972Z,6
2019-04-06T08:23:02.154Z,7
2019-04-06T08:24:02.232Z,7
2019-04-06T08:25:02.635Z,7
2019-04-06T08:26:01.562Z,7
2019-04-06T08:27:01.679Z,7
2019-04-06T08:28:02.130Z,7
2019-04-06T08:29:03.153Z,10
2019-04-06T08:30:02.597Z,10
2019-04-06T08:31:01.805Z,10
2019-04-06T08:32:02.196Z,10
2019-04-06T08:33:02.183Z,10
2019-04-06T08:34:02.502Z,6
2019-04-06T08:35:02.639Z,11
2019-04-06T08:36:02.623Z,11
2019-04-06T08:37:01.619Z,11
2019-04-06T08:38:01.816Z,11
2019-04-06T08:39:01.952Z,11
2019-04-06T08:40:02.591Z,6
2019-04-06T08:41:02.529Z,10
2019-04-06T08:42:01.676Z,10
2019-04-06T08:43:01.962Z,10
2019-04-06T08:44:02.211Z,10
2019-04-06T08:45:02.454Z,10
2019-04-06T08:46:02.790Z,9
2019-04-06T08:47:02.319Z,11
2019-04-06T08:48:02.147Z,11
2019-04-06T08:49:02.207Z,11
2019-04-06T08:50:02.698Z,11
2019-04-06T08:51:02.551Z,11
2019-04-06T08:52:05.735Z,7
2019-04-06T08:53:02.231Z,10
2019-04-06T08:54:02.333Z,10
2019-04-06T08:55:02.356Z,10
2019-04-06T08:56:02.522Z,10
2019-04-06T08:57:01.698Z,10
2019-04-06T08:58:01.836Z,7
2019-04-06T08:59:13.639Z,11
2019-04-06T09:00:04.603Z,11
2019-04-06T09:01:02.490Z,11
2019-04-06T09:02:02.594Z,11
2019-04-06T09:03:01.745Z,11
2019-04-06T09:04:01.950Z,7
2019-04-06T09:05:02.216Z,12
2019-04-06T09:06:02.449Z,12
2019-04-06T09:07:01.897Z,12
2019-04-06T09:08:02.234Z,12
2019-04-06T09:09:02.166Z,12
2019-04-06T09:10:02.365Z,6
2019-04-06T09:11:02.651Z,7
2019-04-06T09:12:01.808Z,7
2019-04-06T09:13:01.944Z,7
2019-04-06T09:14:02.392Z,7
2019-04-06T09:15:02.497Z,7
2019-04-06T09:16:04.276Z,6
2019-04-06T09:17:01.976Z,10
2019-04-06T09:18:02.250Z,10
2019-04-06T09:19:02.469Z,10
2019-04-06T09:20:02.684Z,10
2019-04-06T09:21:01.858Z,10
2019-04-06T09:22:02.138Z,6
2019-04-06T09:23:02.295Z,8
2019-04-06T09:24:02.716Z,8
2019-04-06T09:25:01.783Z,8
2019-04-06T09:26:02.059Z,8
2019-04-06T09:27:01.989Z,8
2019-04-06T09:28:02.703Z,9
2019-04-06T09:29:02.522Z,8
2019-04-06T09:30:01.982Z,8
2019-04-06T09:31:01.851Z,8
2019-04-06T09:32:05.653Z,8
2019-04-06T09:33:02.560Z,8
2019-04-06T09:34:02.720Z,7
2019-04-06T09:35:01.794Z,9
2019-04-06T09:36:03.021Z,9
2019-04-06T09:37:02.305Z,9
2019-04-06T09:38:02.384Z,9
2019-04-06T09:39:02.003Z,9
2019-04-06T09:40:01.878Z,9
2019-04-06T09:41:02.205Z,10
2019-04-06T09:42:02.264Z,10
2019-04-06T09:43:02.547Z,10
2019-04-06T09:44:01.871Z,10
2019-04-06T09:45:02.027Z,10
2019-04-06T09:46:02.355Z,6
2019-04-06T09:47:02.468Z,7
2019-04-06T09:48:02.621Z,7
2019-04-06T09:49:01.923Z,7
2019-04-06T09:50:01.765Z,7
2019-04-06T09:51:02.082Z,7
2019-04-06T09:52:02.446Z,7
2019-04-06T09:53:02.443Z,15
2019-04-06T09:54:07.613Z,15
2019-04-06T09:55:01.978Z,15
2019-04-06T09:56:02.303Z,15
2019-04-06T09:57:02.739Z,15
2019-04-06T09:58:01.715Z,9
2019-04-06T09:59:02.150Z,10
2019-04-06T10:00:04.205Z,10
2019-04-06T10:01:01.983Z,10
2019-04-06T10:02:02.284Z,10
2019-04-06T10:03:02.461Z,10
2019-04-06T10:04:02.315Z,10
2019-04-06T10:05:02.625Z,10
2019-04-06T10:06:01.777Z,10
2019-04-06T10:07:02.229Z,10
2019-04-06T10:08:02.553Z,10
2019-04-06T10:09:02.524Z,10
2019-04-06T10:10:01.814Z,11
2019-04-06T10:11:02.048Z,11
2019-04-06T10:12:04.753Z,11
2019-04-06T10:13:02.396Z,11
2019-04-06T10:14:02.890Z,11
2019-04-06T10:15:01.872Z,11
2019-04-06T10:16:02.075Z,7
2019-04-06T10:17:02.238Z,11
2019-04-06T10:18:02.419Z,11
2019-04-06T10:19:02.660Z,11
2019-04-06T10:20:01.828Z,11
2019-04-06T10:21:02.160Z,11
2019-04-06T10:22:02.195Z,7
2019-04-06T10:23:02.863Z,11
2019-04-06T10:24:02.127Z,11
2019-04-06T10:25:02.495Z,11
2019-04-06T10:26:02.250Z,11
2019-04-06T10:27:02.708Z,11
2019-04-06T10:28:01.928Z,9
2019-04-06T10:29:01.693Z,12
2019-04-06T10:30:01.957Z,12
2019-04-06T10:31:02.547Z,12
2019-04-06T10:32:02.510Z,12
2019-04-06T10:33:01.638Z,12
2019-04-06T10:34:02.044Z,9
2019-04-06T10:35:02.319Z,11
2019-04-06T10:36:02.241Z,11
2019-04-06T10:37:02.076Z,11
2019-04-06T10:38:02.331Z,11
2019-04-06T10:39:02.583Z,11
2019-04-06T10:40:01.700Z,7
2019-04-06T10:41:02.411Z,11
2019-04-06T10:42:01.835Z,11
2019-04-06T10:43:02.226Z,11
2019-04-06T10:44:02.177Z,11
2019-04-06T10:45:02.637Z,11
2019-04-06T10:46:01.771Z,7
2019-04-06T10:47:02.148Z,9
2019-04-06T10:48:02.396Z,9
2019-04-06T10:49:02.499Z,9
2019-04-06T10:50:01.768Z,9
2019-04-06T10:51:01.966Z,9
2019-04-06T10:52:02.210Z,7
2019-04-06T10:53:02.456Z,10
2019-04-06T10:54:02.628Z,10
2019-04-06T10:55:01.971Z,10
2019-04-06T10:56:02.135Z,10
2019-04-06T10:57:02.807Z,10
2019-04-06T10:58:02.821Z,9
2019-04-06T10:59:04.008Z,12
2019-04-06T11:00:06.957Z,12
2019-04-06T11:01:01.770Z,12
2019-04-06T11:02:01.974Z,12
2019-04-06T11:03:02.266Z,12
2019-04-06T11:04:02.559Z,6
2019-04-06T11:05:02.594Z,11
2019-04-06T11:06:01.845Z,11
2019-04-06T11:07:02.125Z,11
2019-04-06T11:08:02.343Z,11
2019-04-06T11:09:02.773Z,11
2019-04-06T11:10:02.142Z,7
2019-04-06T11:11:03.523Z,12
2019-04-06T11:12:02.199Z,12
2019-04-06T11:13:02.423Z,12
2019-04-06T11:14:02.602Z,12
2019-04-06T11:15:01.839Z,12
2019-04-06T11:16:02.031Z,6
2019-04-06T11:17:02.261Z,9
2019-04-06T11:18:02.585Z,9
2019-04-06T11:19:02.866Z,9
2019-04-06T11:20:02.156Z,9
2019-04-06T11:21:02.149Z,9
2019-04-06T11:22:02.776Z,7
2019-04-06T11:23:02.560Z,9
2019-04-06T11:24:01.848Z,9
2019-04-06T11:25:02.509Z,9
2019-04-06T11:26:02.181Z,9
2019-04-06T11:27:02.592Z,9
2019-04-06T11:28:04.678Z,10
2019-04-06T11:29:01.935Z,11
2019-04-06T11:30:15.299Z,11
2019-04-06T11:31:02.220Z,11
2019-04-06T11:32:02.805Z,11
2019-04-06T11:33:01.834Z,11
2019-04-06T11:34:01.986Z,10
2019-04-06T11:35:01.871Z,11
2019-04-06T11:36:02.136Z,11
2019-04-06T11:37:02.265Z,11
2019-04-06T11:38:02.631Z,11
2019-04-06T11:39:01.957Z,11
2019-04-06T11:40:05.574Z,10
2019-04-06T11:41:02.628Z,12
2019-04-06T11:42:02.571Z,12
2019-04-06T11:43:02.107Z,12
2019-04-06T11:44:02.033Z,12
2019-04-06T11:45:02.664Z,12
2019-04-06T11:46:02.912Z,7
2019-04-06T11:47:01.726Z,11
2019-04-06T11:48:02.097Z,11
2019-04-06T11:49:02.196Z,11
2019-04-06T11:50:02.651Z,11
2019-04-06T11:51:01.689Z,11
2019-04-06T11:52:01.907Z,7
2019-04-06T11:53:02.202Z,10
2019-04-06T11:54:02.586Z,10
2019-04-06T11:55:02.873Z,10
2019-04-06T11:56:02.977Z,10
2019-04-06T11:57:01.813Z,10
2019-04-06T11:58:02.467Z,10
2019-04-06T11:59:02.596Z,12
2019-04-06T12:00:03.900Z,12
2019-04-06T12:01:01.844Z,12
2019-04-06T12:02:01.662Z,12
2019-04-06T12:03:01.908Z,12
2019-04-06T12:04:02.316Z,9
2019-04-06T12:05:02.530Z,11
2019-04-06T12:06:01.680Z,11
2019-04-06T12:07:02.108Z,11
2019-04-06T12:08:02.098Z,11
2019-04-06T12:09:02.261Z,11
2019-04-06T12:10:02.801Z,10
2019-04-06T12:11:02.094Z,11
2019-04-06T12:12:02.061Z,11
2019-04-06T12:13:02.312Z,11
2019-04-06T12:14:02.430Z,11
2019-04-06T12:15:02.975Z,11
2019-04-06T12:16:01.866Z,10
2019-04-06T12:17:02.554Z,11
2019-04-06T12:18:02.629Z,11
2019-04-06T12:19:02.853Z,11
2019-04-06T12:20:01.984Z,11
2019-04-06T12:21:02.065Z,11
2019-04-06T12:22:02.166Z,10
2019-04-06T12:23:02.268Z,10
2019-04-06T12:24:02.584Z,10
2019-04-06T12:25:02.682Z,10
2019-04-06T12:26:01.946Z,10
2019-04-06T12:27:01.859Z,10
2019-04-06T12:28:02.236Z,13
2019-04-06T12:29:02.069Z,19
2019-04-06T12:30:02.339Z,19
2019-04-06T12:31:02.386Z,19
2019-04-06T12:32:01.571Z,19
2019-04-06T12:33:01.817Z,19
2019-04-06T12:34:02.470Z,29
2019-04-06T12:35:02.284Z,40
2019-04-06T12:36:02.777Z,40
2019-04-06T12:37:01.745Z,40
2019-04-06T12:38:01.919Z,40
2019-04-06T12:39:02.215Z,40
2019-04-06T12:40:02.738Z,31
2019-04-06T12:41:02.431Z,47
2019-04-06T12:42:01.993Z,47
2019-04-06T12:43:01.897Z,47
2019-04-06T12:44:02.091Z,47
2019-04-06T12:45:02.775Z,47
2019-04-06T12:46:02.899Z,42
2019-04-06T12:47:01.964Z,48
2019-04-06T12:48:02.075Z,48
2019-04-06T12:49:02.482Z,48
2019-04-06T12:50:02.304Z,48
2019-04-06T12:51:02.868Z,48
2019-04-06T12:52:01.810Z,38
2019-04-06T12:53:01.866Z,48
2019-04-06T12:54:02.204Z,48
2019-04-06T12:55:01.853Z,48
2019-04-06T12:56:02.270Z,48
2019-04-06T12:57:02.141Z,48
2019-04-06T12:58:02.278Z,41
2019-04-06T12:59:02.416Z,38
2019-04-06T13:00:06.449Z,38
2019-04-06T13:01:02.133Z,38
2019-04-06T13:02:01.900Z,38
2019-04-06T13:03:02.081Z,38
2019-04-06T13:04:02.112Z,38
2019-04-06T13:05:02.356Z,45
2019-04-06T13:06:02.555Z,45
2019-04-06T13:07:02.053Z,45
2019-04-06T13:08:02.160Z,45
2019-04-06T13:09:02.888Z,45
2019-04-06T13:10:01.732Z,34
2019-04-06T13:11:02.168Z,43
2019-04-06T13:12:02.349Z,43
2019-04-06T13:13:02.444Z,43
2019-04-06T13:14:02.017Z,43
2019-04-06T13:15:01.938Z,43
2019-04-06T13:16:02.022Z,35
2019-04-06T13:17:02.297Z,42
2019-04-06T13:18:03.038Z,42
2019-04-06T13:19:02.023Z,42
2019-04-06T13:20:02.396Z,42
2019-04-06T13:21:02.511Z,42
2019-04-06T13:22:02.403Z,44
2019-04-06T13:23:01.793Z,42
2019-04-06T13:24:02.082Z,42
2019-04-06T13:25:02.027Z,42
2019-04-06T13:26:02.302Z,42
2019-04-06T13:27:02.800Z,42
2019-04-06T13:28:01.982Z,37
2019-04-06T13:29:02.186Z,37
2019-04-06T13:30:02.094Z,37
2019-04-06T13:31:05.046Z,37
2019-04-06T13:32:02.877Z,37
2019-04-06T13:33:01.732Z,37
2019-04-06T13:34:02.236Z,46
2019-04-06T13:35:02.529Z,41
2019-04-06T13:36:02.765Z,41
2019-04-06T13:37:02.110Z,41
2019-04-06T13:38:01.964Z,41
2019-04-06T13:39:02.496Z,41
2019-04-06T13:40:02.519Z,40
2019-04-06T13:41:02.614Z,52
2019-04-06T13:42:02.292Z,52
2019-04-06T13:43:02.107Z,52
2019-04-06T13:44:02.269Z,52
2019-04-06T13:45:02.838Z,52
2019-04-06T13:46:01.694Z,43
2019-04-06T13:47:01.876Z,45
2019-04-06T13:48:02.430Z,45
2019-04-06T13:49:02.300Z,45
2019-04-06T13:50:02.569Z,45
2019-04-06T13:51:01.757Z,45
2019-04-06T13:52:02.031Z,50
2019-04-06T13:53:02.771Z,56
2019-04-06T13:54:02.190Z,56
2019-04-06T13:55:02.437Z,56
2019-04-06T13:56:02.895Z,56
2019-04-06T13:57:01.818Z,56
2019-04-06T13:58:02.157Z,44
2019-04-06T13:59:02.128Z,51
2019-04-06T14:00:05.774Z,51
2019-04-06T14:01:17.816Z,51
2019-04-06T14:02:01.640Z,51
2019-04-06T14:03:01.872Z,51
2019-04-06T14:04:02.532Z,55
2019-04-06T14:05:02.415Z,52
2019-04-06T14:06:02.784Z,52
2019-04-06T14:07:01.806Z,52
2019-04-06T14:08:01.958Z,52
2019-04-06T14:09:02.271Z,52
2019-04-06T14:10:02.492Z,44
2019-04-06T14:11:02.249Z,51
2019-04-06T14:12:01.940Z,51
2019-04-06T14:13:02.524Z,51
2019-04-06T14:14:02.451Z,51
2019-04-06T14:15:02.634Z,51
2019-04-06T14:16:01.862Z,45
2019-04-06T14:17:02.473Z,59
2019-04-06T14:18:02.737Z,59
2019-04-06T14:19:02.504Z,59
2019-04-06T14:20:01.852Z,59
2019-04-06T14:21:02.387Z,59
2019-04-06T14:22:02.229Z,52
2019-04-06T14:23:02.614Z,56
2019-04-06T14:24:02.736Z,56
2019-04-06T14:25:01.901Z,56
2019-04-06T14:26:02.499Z,56
2019-04-06T14:27:02.266Z,56
2019-04-06T14:28:02.685Z,51
2019-04-06T14:29:02.158Z,61
2019-04-06T14:30:01.863Z,61
2019-04-06T14:31:02.235Z,61
2019-04-06T14:32:02.326Z,61
2019-04-06T14:33:02.540Z,61
2019-04-06T14:34:01.861Z,42
2019-04-06T14:35:02.461Z,53